createdAt,value
2022-09-05T00:00:22.467Z,56.76
2022-09-05T00:03:08.448Z,57.45
2022-09-05T00:05:50.989Z,57.42
2022-09-05T00:09:00.908Z,57.49
2022-09-05T00:11:58.429Z,57.38
2022-09-05T00:15:17.055Z,57.40
2022-09-05T00:18:01.572Z,57.07
2022-09-05T00:24:26.251Z,57.10
2022-09-05T00:24:30.777Z,57.47
2022-09-05T00:27:06.174Z,57.10
2022-09-05T00:31:52.023Z,57.73
2022-09-05T00:33:26.017Z,57.21
2022-09-05T00:36:23.113Z,57.70
2022-09-05T00:39:02.324Z,57.80
2022-09-05T00:41:34.310Z,57.73
2022-09-05T00:44:03.244Z,57.77
2022-09-05T00:46:38.548Z,57.86
2022-09-05T00:49:40.496Z,58.06
2022-09-05T00:52:21.835Z,58.02
2022-09-05T00:55:45.393Z,58.19
2022-09-05T00:58:50.444Z,58.33
2022-09-05T01:01:45.669Z,57.88
2022-09-05T01:05:03.801Z,58.46
2022-09-05T01:08:13.372Z,58.57
2022-09-05T01:11:25.215Z,57.87
2022-09-05T01:14:30.520Z,58.29
2022-09-05T01:17:45.713Z,58.30
2022-09-05T01:20:53.853Z,58.16
2022-09-05T01:23:50.109Z,58.69
2022-09-05T01:26:43.298Z,58.50
2022-09-05T01:29:46.426Z,58.46
2022-09-05T01:32:24.496Z,58.26
2022-09-05T01:35:41.628Z,58.66
2022-09-05T01:39:07.288Z,58.23
2022-09-05T01:41:49.508Z,58.29
2022-09-05T01:44:29.696Z,58.79
2022-09-05T01:47:25.552Z,58.93
2022-09-05T01:50:25.651Z,58.39
2022-09-05T01:53:11.207Z,58.59
2022-09-05T01:56:04.366Z,58.65
2022-09-05T01:59:00.828Z,58.90
2022-09-05T02:01:43.281Z,58.53
2022-09-05T02:04:47.457Z,59.01
2022-09-05T02:07:37.773Z,59.08
2022-09-05T02:10:29.737Z,59.10
2022-09-05T02:13:34.076Z,58.74
2022-09-05T02:16:28.535Z,59.05
2022-09-05T02:19:09.428Z,58.87
2022-09-05T02:21:56.931Z,59.25
2022-09-05T02:24:35.548Z,59.25
2022-09-05T02:27:30.173Z,59.04
2022-09-05T02:30:24.595Z,58.91
2022-09-05T02:33:04.522Z,59.20
2022-09-05T02:35:46.009Z,59.57
2022-09-05T02:45:00.222Z,59.67
2022-09-05T02:45:07.126Z,59.29
2022-09-05T02:45:07.127Z,59.28
2022-09-05T02:47:54.020Z,59.21
2022-09-05T02:53:59.272Z,59.34
2022-09-05T02:57:35.916Z,59.50
2022-09-05T02:57:39.665Z,59.26
2022-09-05T02:59:52.522Z,59.70
2022-09-05T03:03:10.040Z,59.90
2022-09-05T03:06:03.692Z,59.67
2022-09-05T03:08:42.698Z,60.22
2022-09-05T03:11:51.473Z,59.55
2022-09-05T03:14:55.231Z,59.87
2022-09-05T03:18:20.052Z,59.77
2022-09-05T03:20:51.577Z,59.77
2022-09-05T03:23:43.484Z,59.83
2022-09-05T03:27:20.286Z,59.81
2022-09-05T03:30:16.215Z,59.94
2022-09-05T03:33:08.440Z,59.91
2022-09-05T03:35:54.233Z,60.41
2022-09-05T03:38:49.243Z,60.00
2022-09-05T03:42:04.872Z,60.20
2022-09-05T03:45:05.650Z,60.19
2022-09-05T03:48:53.730Z,60.62
2022-09-05T03:57:05.024Z,60.99
2022-09-05T03:57:17.973Z,60.70
2022-09-05T03:58:16.459Z,60.27
2022-09-05T04:02:49.229Z,60.75
2022-09-05T04:08:14.987Z,60.35
2022-09-05T04:08:28.656Z,60.54
2022-09-05T04:10:53.829Z,60.66
2022-09-05T04:13:52.381Z,60.93
2022-09-05T04:16:32.079Z,60.91
2022-09-05T04:19:27.002Z,60.98
2022-09-05T04:22:27.768Z,60.72
2022-09-05T04:25:00.353Z,61.20
2022-09-05T04:27:53.390Z,60.78
2022-09-05T04:30:45.060Z,61.27
2022-09-05T04:33:36.422Z,60.94
2022-09-05T04:36:26.593Z,60.92
2022-09-05T04:39:18.000Z,61.00
2022-09-05T04:42:14.207Z,61.21
2022-09-05T04:45:07.470Z,61.19
2022-09-05T04:47:40.356Z,61.96
2022-09-05T04:50:16.205Z,61.81
2022-09-05T04:53:11.346Z,61.67
2022-09-05T04:55:55.367Z,61.70
2022-09-05T05:01:37.946Z,61.50
2022-09-05T05:06:05.145Z,61.97
2022-09-05T05:06:12.394Z,61.41
2022-09-05T05:07:30.065Z,61.75
2022-09-05T05:10:55.428Z,62.21
2022-09-05T05:17:59.705Z,61.67
2022-09-05T05:18:11.156Z,61.75
2022-09-05T05:19:34.245Z,61.72
2022-09-05T05:22:04.894Z,62.08
2022-09-05T05:24:45.823Z,61.85
2022-09-05T05:27:15.876Z,62.23
2022-09-05T05:30:06.787Z,61.71
2022-09-05T05:32:46.401Z,62.36
2022-09-05T05:35:31.448Z,61.87
2022-09-05T05:38:48.132Z,62.26
2022-09-05T05:41:39.289Z,61.92
2022-09-05T05:44:16.448Z,62.45
2022-09-05T05:47:14.501Z,62.08
2022-09-05T05:50:52.716Z,62.49
2022-09-05T05:54:07.734Z,62.39
2022-09-05T05:56:59.444Z,62.13
2022-09-05T06:00:15.623Z,62.42
2022-09-05T06:03:25.852Z,62.69
2022-09-05T06:06:38.703Z,62.59
2022-09-05T06:14:52.326Z,62.49
2022-09-05T06:15:06.398Z,62.66
2022-09-05T06:16:31.780Z,62.19
2022-09-05T06:20:31.498Z,61.96
2022-09-05T06:22:59.577Z,62.42
2022-09-05T06:26:02.726Z,62.60
2022-09-05T06:29:00.284Z,62.29
2022-09-05T06:32:27.480Z,62.66
2022-09-05T06:35:53.383Z,62.77
2022-09-05T06:38:38.228Z,62.76
2022-09-05T06:41:20.834Z,62.70
2022-09-05T06:44:16.937Z,62.87
2022-09-05T06:47:07.757Z,62.82
2022-09-05T06:49:48.931Z,62.45
2022-09-05T06:53:30.094Z,62.81
2022-09-05T06:56:03.105Z,62.36
2022-09-05T06:59:17.253Z,62.32
2022-09-05T07:02:01.747Z,62.64
2022-09-05T07:05:24.798Z,62.40
2022-09-05T07:07:29.024Z,62.47
2022-09-05T07:10:21.943Z,62.34
2022-09-05T07:12:53.668Z,62.21
2022-09-05T07:15:58.244Z,62.40
2022-09-05T07:18:59.118Z,62.39
2022-09-05T07:21:44.265Z,61.98
2022-09-05T07:24:32.624Z,62.37
2022-09-05T07:27:09.139Z,62.09
2022-09-05T07:29:52.427Z,62.19
2022-09-05T07:32:32.932Z,61.96
2022-09-05T07:35:03.636Z,61.96
2022-09-05T07:37:42.021Z,61.70
2022-09-05T07:40:26.022Z,62.17
2022-09-05T07:43:18.905Z,62.25
2022-09-05T07:46:11.402Z,61.71
2022-09-05T07:49:04.388Z,61.62
2022-09-05T07:56:46.407Z,61.77
2022-09-05T07:57:06.273Z,61.57
2022-09-05T07:57:51.396Z,61.87
2022-09-05T08:00:27.002Z,61.88
2022-09-05T08:03:01.449Z,61.74
2022-09-05T08:05:44.987Z,61.42
2022-09-05T08:08:20.160Z,61.64
2022-09-05T08:11:25.521Z,61.48
2022-09-05T08:14:02.377Z,61.50
2022-09-05T08:16:43.150Z,61.49
2022-09-05T08:19:39.862Z,60.99
2022-09-05T08:22:13.782Z,60.80
2022-09-05T08:25:04.735Z,60.53
2022-09-05T08:28:03.380Z,60.95
2022-09-05T08:30:47.048Z,60.87
2022-09-05T08:33:25.158Z,60.46
2022-09-05T08:36:29.259Z,60.49
2022-09-05T08:39:00.001Z,60.45
2022-09-05T08:41:49.209Z,60.20
2022-09-05T08:46:42.599Z,59.87
2022-09-05T08:48:26.915Z,60.06
2022-09-05T08:51:30.632Z,60.35
2022-09-05T08:54:21.905Z,60.07
2022-09-05T08:57:04.212Z,59.68
2022-09-05T09:00:18.992Z,59.62
2022-09-05T09:03:25.741Z,59.78
2022-09-05T09:06:13.435Z,59.92
2022-09-05T09:09:13.875Z,59.77
2022-09-05T09:11:59.081Z,59.84
2022-09-05T09:14:57.745Z,59.85
2022-09-05T09:17:43.522Z,59.80
2022-09-05T09:20:45.083Z,59.96
2022-09-05T09:23:32.031Z,59.41
2022-09-05T09:26:18.692Z,59.28
2022-09-05T09:29:07.014Z,59.13
2022-09-05T09:31:45.944Z,58.97
2022-09-05T09:34:21.963Z,58.87
2022-09-05T09:37:50.656Z,58.66
2022-09-05T09:41:01.128Z,58.48
2022-09-05T09:44:05.398Z,58.72
2022-09-05T09:46:47.788Z,58.43
2022-09-05T09:49:55.122Z,58.48
2022-09-05T09:52:36.859Z,58.17
2022-09-05T09:55:30.820Z,58.25
2022-09-05T09:58:32.127Z,58.04
2022-09-05T10:03:59.706Z,57.78
2022-09-05T10:10:50.463Z,57.61
2022-09-05T10:10:54.450Z,57.77
2022-09-05T10:13:08.107Z,56.85
2022-09-05T10:16:37.495Z,56.54
2022-09-05T10:22:52.338Z,55.31
2022-09-05T10:26:01.542Z,55.50
2022-09-05T10:29:35.143Z,55.06
2022-09-05T10:35:11.087Z,54.78
2022-09-05T10:35:24.799Z,54.96
2022-09-05T10:38:10.219Z,54.28
2022-09-05T10:41:14.581Z,54.11
2022-09-05T10:43:34.199Z,53.79
2022-09-05T10:46:49.522Z,54.11
2022-09-05T10:49:22.305Z,54.05
2022-09-05T10:52:05.410Z,53.96
2022-09-05T10:55:14.296Z,53.91
2022-09-05T10:58:30.422Z,53.32
2022-09-05T11:02:27.234Z,53.09
2022-09-05T11:05:04.100Z,53.09
2022-09-05T11:08:01.913Z,52.98
2022-09-05T11:10:39.429Z,52.27
2022-09-05T11:13:50.121Z,52.73
2022-09-05T11:16:35.101Z,52.00
2022-09-05T11:19:13.616Z,51.52
2022-09-05T11:22:22.805Z,51.21
2022-09-05T11:25:01.233Z,50.78
2022-09-05T11:27:47.308Z,50.93
2022-09-05T11:30:29.991Z,50.87
2022-09-05T11:39:46.458Z,50.57
2022-09-05T11:39:50.312Z,50.25
2022-09-05T11:39:59.338Z,49.82
2022-09-05T11:42:40.643Z,49.74
2022-09-05T11:45:35.364Z,49.39
2022-09-05T11:48:47.919Z,49.65
2022-09-05T11:51:35.371Z,49.54
2022-09-05T11:55:21.442Z,49.59
2022-09-05T11:58:43.777Z,49.32
2022-09-05T12:01:36.777Z,49.39
2022-09-05T12:05:49.293Z,48.82
2022-09-05T12:08:08.580Z,48.78
2022-09-05T12:10:48.930Z,48.19
2022-09-05T12:13:35.359Z,48.45
2022-09-05T12:16:38.947Z,48.83
2022-09-05T12:19:42.125Z,49.21
2022-09-05T12:22:28.524Z,48.95
2022-09-05T12:26:00.503Z,48.84
2022-09-05T12:29:27.198Z,48.93
2022-09-05T12:32:30.887Z,48.37
2022-09-05T12:36:12.398Z,48.29
2022-09-05T12:40:55.325Z,47.58
2022-09-05T12:41:44.181Z,46.36
2022-09-05T12:44:38.705Z,46.37
2022-09-05T12:47:16.813Z,45.49
2022-09-05T12:50:14.965Z,45.07
2022-09-05T12:52:47.007Z,44.69
2022-09-05T12:55:17.190Z,43.59
2022-09-05T13:02:02.888Z,42.93
2022-09-05T13:03:08.336Z,41.61
2022-09-05T13:04:05.788Z,41.84
2022-09-05T13:06:46.457Z,42.04
2022-09-05T13:09:16.651Z,41.08
2022-09-05T13:14:58.076Z,40.37
2022-09-05T13:15:22.843Z,38.91
2022-09-05T13:17:59.199Z,38.21
2022-09-05T13:20:36.804Z,37.87
2022-09-05T13:23:39.299Z,36.83
2022-09-05T13:26:33.946Z,36.00
2022-09-05T13:29:15.153Z,35.39
2022-09-05T13:38:02.724Z,35.84
2022-09-05T13:38:14.306Z,33.93
2022-09-05T13:38:17.982Z,34.82
2022-09-05T13:40:40.712Z,33.44
2022-09-05T13:43:36.533Z,33.07
2022-09-05T13:46:21.534Z,32.25
2022-09-05T13:49:32.061Z,31.37
2022-09-05T13:52:28.078Z,31.17
2022-09-05T13:55:30.197Z,31.52
2022-09-05T13:58:07.691Z,30.60
2022-09-05T14:00:40.251Z,30.91
2022-09-05T14:03:31.465Z,29.73
2022-09-05T14:06:47.238Z,30.35
2022-09-05T14:09:49.244Z,29.97
2022-09-05T14:12:52.807Z,29.84
2022-09-05T14:16:01.193Z,29.55
2022-09-05T14:19:04.416Z,28.93
2022-09-05T14:21:37.861Z,29.31
2022-09-05T14:24:27.776Z,29.50
2022-09-05T14:27:03.024Z,29.18
2022-09-05T14:29:40.830Z,29.43
2022-09-05T14:37:44.561Z,29.96
2022-09-05T14:37:45.117Z,29.96
2022-09-05T14:38:38.972Z,30.56
2022-09-05T14:41:33.237Z,30.58
2022-09-05T14:44:22.833Z,30.71
2022-09-05T14:47:06.301Z,30.55
2022-09-05T14:50:09.607Z,31.04
2022-09-05T14:52:43.722Z,30.59
2022-09-05T15:02:45.491Z,30.33
2022-09-05T15:02:58.397Z,30.58
2022-09-05T15:06:36.915Z,30.84
2022-09-05T15:12:20.726Z,31.11
2022-09-05T15:12:22.077Z,30.44
2022-09-05T15:15:25.875Z,30.69
2022-09-05T15:18:01.378Z,29.85
2022-09-05T15:20:36.219Z,29.62
2022-09-05T15:23:16.092Z,29.05
2022-09-05T15:26:18.231Z,29.77
2022-09-05T15:29:13.726Z,29.26
2022-09-05T15:31:41.971Z,28.62
2022-09-05T15:34:26.544Z,28.90
2022-09-05T15:36:56.494Z,28.27
2022-09-05T15:39:43.791Z,28.36
2022-09-05T15:42:22.721Z,28.50
2022-09-05T15:45:09.223Z,27.59
2022-09-05T15:47:39.649Z,28.05
2022-09-05T15:50:21.772Z,27.37
2022-09-05T15:52:54.894Z,27.95
2022-09-05T15:55:27.721Z,27.74
2022-09-05T15:58:03.098Z,27.70
2022-09-05T16:00:33.392Z,27.53
2022-09-05T16:05:49.318Z,27.37
2022-09-05T16:10:43.467Z,27.31
2022-09-05T16:10:50.570Z,27.58
2022-09-05T16:12:33.090Z,27.50
2022-09-05T16:15:55.245Z,27.45
2022-09-05T16:23:12.137Z,28.00
2022-09-05T16:23:29.522Z,27.32
2022-09-05T16:24:27.109Z,27.40
2022-09-05T16:27:10.136Z,27.66
2022-09-05T16:29:46.213Z,27.77
2022-09-05T16:32:28.613Z,28.02
2022-09-05T16:35:10.617Z,28.60
2022-09-05T16:38:08.771Z,28.82
2022-09-05T16:40:47.292Z,29.29
2022-09-05T16:43:20.444Z,29.96
2022-09-05T16:46:15.293Z,30.13
2022-09-05T16:49:11.657Z,31.15
2022-09-05T16:51:50.106Z,31.92
2022-09-05T16:54:31.980Z,32.49
2022-09-05T16:57:12.080Z,32.19
2022-09-05T16:59:43.514Z,32.69
2022-09-05T17:02:41.748Z,33.73
2022-09-05T17:05:12.545Z,33.48
2022-09-05T17:08:09.520Z,33.96
2022-09-05T17:10:57.271Z,34.76
2022-09-05T17:13:48.956Z,35.14
2022-09-05T17:16:36.178Z,35.02
2022-09-05T17:19:03.965Z,35.42
2022-09-05T17:25:58.558Z,35.98
2022-09-05T17:29:25.637Z,36.29
2022-09-05T17:29:32.173Z,36.30
2022-09-05T17:33:02.081Z,36.82
2022-09-05T17:36:01.420Z,37.28
2022-09-05T17:38:50.378Z,37.63
2022-09-05T17:41:51.229Z,37.94
2022-09-05T17:45:08.546Z,37.92
2022-09-05T17:47:57.560Z,38.11
2022-09-05T17:50:28.209Z,38.51
2022-09-05T17:53:25.705Z,38.91
2022-09-05T17:55:54.739Z,38.66
2022-09-05T17:58:49.919Z,39.65
2022-09-05T18:01:19.105Z,39.67
2022-09-05T18:03:48.804Z,39.67
2022-09-05T18:06:16.370Z,40.15
2022-09-05T18:08:46.359Z,40.40
2022-09-05T18:11:25.254Z,41.12
2022-09-05T18:14:01.448Z,40.86
2022-09-05T18:17:37.802Z,41.49
2022-09-05T18:20:00.307Z,41.08
2022-09-05T18:22:41.156Z,41.49
2022-09-05T18:25:30.547Z,41.51
2022-09-05T18:28:34.720Z,42.07
2022-09-05T18:31:43.656Z,41.86
2022-09-05T18:34:21.435Z,42.64
2022-09-05T18:36:58.592Z,42.22
2022-09-05T18:39:37.833Z,42.63
2022-09-05T18:42:33.531Z,43.11
2022-09-05T18:45:16.463Z,43.39
2022-09-05T18:47:59.137Z,43.77
2022-09-05T18:50:32.865Z,43.49
2022-09-05T18:53:10.599Z,44.01
2022-09-05T18:56:14.148Z,43.94
2022-09-05T18:59:16.582Z,44.18
2022-09-05T19:02:00.723Z,44.05
2022-09-05T19:04:53.312Z,44.28
2022-09-05T19:07:48.249Z,44.32
2022-09-05T19:10:34.368Z,44.69
2022-09-05T19:13:31.839Z,44.45
2022-09-05T19:16:42.119Z,44.98
2022-09-05T19:19:18.494Z,45.06
2022-09-05T19:21:59.793Z,45.36
2022-09-05T19:24:45.427Z,45.53
2022-09-05T19:30:28.395Z,45.60
2022-09-05T19:36:50.378Z,46.04
2022-09-05T19:36:51.631Z,45.41
2022-09-05T19:36:53.900Z,45.79
2022-09-05T19:40:46.692Z,45.71
2022-09-05T19:47:43.032Z,46.50
2022-09-05T19:47:50.129Z,46.26
2022-09-05T19:50:27.018Z,46.79
2022-09-05T19:53:06.359Z,47.30
2022-09-05T19:55:37.972Z,47.31
2022-09-05T19:58:19.912Z,47.27
2022-09-05T20:01:05.768Z,47.15
2022-09-05T20:03:38.972Z,47.57
2022-09-05T20:09:22.028Z,47.81
2022-09-05T20:12:00.359Z,48.10
2022-09-05T20:14:31.135Z,47.55
2022-09-05T20:17:17.797Z,48.16
2022-09-05T20:19:45.684Z,48.13
2022-09-05T20:22:47.347Z,48.11
2022-09-05T20:25:35.834Z,48.09
2022-09-05T20:28:13.842Z,48.30
2022-09-05T20:30:45.467Z,47.93
2022-09-05T20:33:42.061Z,48.70
2022-09-05T20:43:10.320Z,48.58
2022-09-05T20:43:23.465Z,48.42
2022-09-05T20:43:32.088Z,48.58
2022-09-05T20:44:51.156Z,49.22
2022-09-05T20:54:04.395Z,48.69
2022-09-05T20:54:10.404Z,48.82
2022-09-05T20:54:17.611Z,48.92
2022-09-05T20:56:32.490Z,49.50
2022-09-05T20:59:00.849Z,49.21
2022-09-05T21:01:32.358Z,49.23
2022-09-05T21:04:06.001Z,49.72
2022-09-05T21:06:37.684Z,49.71
2022-09-05T21:09:24.591Z,49.94
2022-09-05T21:11:54.750Z,49.64
2022-09-05T21:14:24.715Z,50.16
2022-09-05T21:17:15.761Z,50.44
2022-09-05T21:19:53.985Z,49.60
2022-09-05T21:22:23.023Z,50.03
2022-09-05T21:25:10.088Z,50.49
2022-09-05T21:27:37.604Z,50.29
2022-09-05T21:30:31.287Z,50.29
2022-09-05T21:33:18.510Z,50.61
2022-09-05T21:35:51.382Z,50.32
2022-09-05T21:38:31.098Z,50.40
2022-09-05T21:41:05.180Z,50.77
2022-09-05T21:47:39.101Z,50.63
2022-09-05T21:47:47.405Z,50.51
2022-09-05T21:49:10.741Z,50.37
2022-09-05T21:51:38.635Z,51.16
2022-09-05T21:59:13.403Z,51.44
2022-09-05T21:59:19.176Z,50.79
2022-09-05T21:59:55.514Z,50.90
2022-09-05T22:02:28.655Z,51.41
2022-09-05T22:05:03.156Z,51.06
2022-09-05T22:07:35.808Z,51.30
2022-09-05T22:10:06.029Z,51.54
2022-09-05T22:12:35.930Z,51.60
2022-09-05T22:15:26.282Z,51.15
2022-09-05T22:18:06.355Z,51.17
2022-09-05T22:20:44.363Z,51.49
2022-09-05T22:23:11.910Z,51.53
2022-09-05T22:25:39.539Z,51.58
2022-09-05T22:28:33.668Z,51.81
2022-09-05T22:31:07.382Z,51.35
2022-09-05T22:33:36.056Z,51.97
2022-09-05T22:36:04.141Z,51.77
2022-09-05T22:38:32.572Z,52.06
2022-09-05T22:40:59.587Z,52.07
2022-09-05T22:43:27.221Z,52.12
2022-09-05T22:45:57.810Z,52.47
2022-09-05T22:48:25.079Z,52.02
2022-09-05T22:50:52.356Z,52.00
2022-09-05T22:53:19.899Z,52.18
2022-09-05T22:55:47.266Z,52.56
2022-09-05T22:58:15.427Z,52.34
2022-09-05T23:00:44.404Z,52.58
2022-09-05T23:03:11.490Z,52.36
2022-09-05T23:05:38.478Z,52.54
2022-09-05T23:08:06.583Z,52.44
2022-09-05T23:10:36.006Z,52.51
2022-09-05T23:13:09.798Z,53.01
2022-09-05T23:15:38.588Z,52.83
2022-09-05T23:18:06.112Z,52.89
2022-09-05T23:20:34.194Z,53.06
2022-09-05T23:23:06.888Z,53.19
2022-09-05T23:25:36.282Z,53.07
2022-09-05T23:28:10.376Z,53.22
2022-09-05T23:30:38.796Z,53.01
2022-09-05T23:33:09.315Z,53.22
2022-09-05T23:35:37.432Z,53.36
2022-09-05T23:38:12.438Z,53.60
2022-09-05T23:40:39.779Z,53.34
2022-09-05T23:43:07.804Z,53.91
2022-09-05T23:45:34.864Z,53.54
2022-09-05T23:48:02.577Z,54.08
2022-09-05T23:50:29.736Z,54.46
2022-09-05T23:52:56.745Z,54.52
2022-09-05T23:55:24.446Z,54.71
2022-09-05T23:58:00.577Z,54.23
